Latest Weather Observations for Cape Bruny AWS

IDT60901

Issued at 9:01 pm EST Friday 20 May 2022 (issued every 10 minutes, with the page automatically refreshed every 10 minutes)

About weather observations | Map of Hobart area stations | Latest observations for Hobart area | Other Formats
Station Details ID: 094198 Name: CAPE BRUNY (CAPE BRUNY) Lat: -43.49 Lon: 147.14 Height: 59.7 m
Data from the previous 72 hours. | See also: Recent months at Cape Bruny AWS
Date/Time
EST
Temp
°C
App
Temp
°C
Dew
Point
°C
Rel
Hum
%
Delta-T
°C
Wind Press
QNH
hPa
Press
MSL
hPa
Rain since
9am
mm
Dir  Spd
km/h
Gust
km/h
Spd
kts
Gust
kts
20/09:00pm 9.4 4.3 7.5 88 0.9 W 24 33 13 18 1035.3 1035.4 0.4
20/08:30pm 9.4 4.3 7.7 89 0.8 WSW 24 33 13 18 1035.3 1035.4 0.4
20/08:00pm 9.8 4.7 7.6 86 1.0 WSW 24 35 13 19 1035.0 1035.1 0.4
20/07:30pm 9.6 4.8 7.5 87 1.0 W 22 32 12 17 1035.0 1035.1 0.4
20/07:00pm 9.8 4.6 7.4 85 1.1 WSW 24 32 13 17 1034.8 1034.9 0.4
20/06:30pm 9.8 5.3 7.1 83 1.3 W 20 26 11 14 1034.7 1034.8 0.4
20/06:00pm 10.3 4.6 6.8 79 1.6 WSW 26 33 14 18 1034.5 1034.6 0.4
20/05:30pm 10.1 5.2 7.0 81 1.5 WSW 22 30 12 16 1034.4 1034.5 0.4
20/05:00pm 10.0 4.0 6.9 81 1.4 WSW 28 35 15 19 1034.1 1034.2 0.4
20/04:30pm 10.3 4.7 7.0 80 1.6 WSW 26 32 14 17 1034.1 1034.2 0.4
20/04:00pm 10.3 5.1 7.2 81 1.5 WSW 24 33 13 18 1033.9 1034.0 0.4
20/03:30pm 11.2 6.9 7.9 80 1.6 SW 20 28 11 15 1033.8 1033.9 0.4
20/03:00pm 11.8 7.7 8.5 80 1.6 WSW 20 32 11 17 1033.6 1033.7 0.4
20/02:30pm 11.1 6.5 8.0 81 1.5 WSW 22 32 12 17 1033.6 1033.7 0.4
20/02:00pm 11.3 7.5 8.9 85 1.2 WSW 19 26 10 14 1033.6 1033.7 0.4
20/01:30pm 10.5 6.4 8.6 88 0.9 WSW 20 28 11 15 1033.6 1033.7 0.4
20/01:00pm 10.8 6.6 8.2 84 1.3 W 20 26 11 14 1033.5 1033.6 0.4
20/12:30pm 10.4 6.2 8.3 87 1.0 W 20 30 11 16 1033.7 1033.8 0.4
20/12:00pm 9.8 5.2 8.1 89 0.8 W 22 32 12 17 1033.8 1033.9 0.4
20/11:30am 9.4 3.6 8.0 91 0.7 WSW 28 37 15 20 1034.0 1034.1 0.4
20/11:00am 9.8 6.1 8.1 89 0.8 WSW 17 28 9 15 1033.9 1034.0 0.4
20/10:30am 9.5 4.8 7.6 88 0.9 WSW 22 32 12 17 1033.8 1033.9 0.2
20/10:00am 9.6 4.9 7.9 89 0.8 WSW 22 35 12 19 1033.8 1033.9 0.0
20/09:30am 10.7 5.5 7.2 79 1.7 W 24 32 13 17 1033.5 1033.6 0.0
20/09:00am 10.0 4.0 6.9 81 1.4 W 28 37 15 20 1033.4 1033.5 2.2
20/08:30am 9.4 2.6 6.8 84 1.2 WSW 32 41 17 22 1033.2 1033.3 2.2
20/08:00am 9.5 3.9 7.1 85 1.1 WSW 26 35 14 19 1032.9 1033.0 2.2
20/07:30am 9.7 4.3 8.0 89 0.8 WSW 26 35 14 19 1032.5 1032.6 2.2
20/07:00am 9.6 3.7 7.4 86 1.0 SW 28 39 15 21 1032.2 1032.3 2.0
20/06:30am 9.5 3.6 7.3 86 1.0 WSW 28 43 15 23 1032.0 1032.1 2.0
20/06:00am 9.1 3.2 7.7 91 0.7 WSW 28 41 15 22 1031.7 1031.8 2.0
20/05:30am 9.3 3.6 8.4 94 0.4 W 28 46 15 25 1031.5 1031.6 1.8
20/05:25am 9.3 3.6 8.5 95 0.4 W 28 46 15 25 1031.4 1031.5 1.8
20/05:00am 9.1 3.7 8.2 94 0.4 W 26 33 14 18 1031.2 1031.3 1.2
20/04:30am 9.1 2.4 8.0 93 0.5 W 33 44 18 24 1030.9 1031.0 0.6
20/04:00am 9.2 1.2 7.5 89 0.8 W 39 50 21 27 1030.7 1030.8 0.0
20/03:30am 9.9 1.7 6.6 80 1.5 WSW 39 56 21 30 1030.4 1030.5 0.0
20/03:00am 9.7 1.5 6.4 80 1.5 WSW 39 48 21 26 1030.4 1030.5 0.0
20/02:30am 10.0 2.4 6.0 76 1.9 WSW 35 46 19 25 1030.4 1030.5 0.0
20/02:00am 10.2 2.6 6.0 75 1.9 W 35 46 19 25 1030.4 1030.5 0.0
20/01:30am 10.1 3.0 6.4 78 1.7 W 33 43 18 23 1030.3 1030.4 0.0
20/01:00am 10.4 1.7 6.0 74 2.0 WSW 41 52 22 28 1030.1 1030.2 0.0
20/12:30am 10.6 2.2 5.8 72 2.2 W 39 50 21 27 1029.9 1030.0 0.0
20/12:00am 10.7 2.7 5.7 71 2.3 W 37 46 20 25 1029.8 1029.9 0.0
 
Date/Time
EST
Temp
°C
App
Temp
°C
Dew
Point
°C
Rel
Hum
%
Delta-T
°C
Wind Press
QNH
hPa
Press
MSL
hPa
Rain since
9am
mm
Dir  Spd
km/h
Gust
km/h
Spd
kts
Gust
kts
19/11:30pm 10.5 2.7 5.1 69 2.5 W 35 50 19 27 1029.6 1029.7 0.0
19/11:00pm 10.2 2.6 5.8 74 2.0 W 35 46 19 25 1029.7 1029.8 0.0
19/10:30pm 10.7 2.6 5.3 69 2.5 WSW 37 50 20 27 1029.5 1029.6 0.0
19/10:00pm 11.0 1.5 3.8 61 3.2 WSW 43 52 23 28 1029.0 1029.1 0.0
19/09:30pm 10.9 0.6 4.8 66 2.8 WSW 48 57 26 31 1028.8 1028.9 0.0
19/09:00pm 10.8 1.3 3.8 62 3.1 WSW 43 54 23 29 1028.6 1028.7 0.0
19/08:30pm 10.9 1.4 4.1 63 3.0 WSW 43 54 23 29 1028.3 1028.4 0.0
19/08:00pm 11.0 2.0 4.5 64 2.9 WSW 41 54 22 29 1028.0 1028.1 0.0
19/07:30pm 10.9 2.3 4.6 65 2.8 W 39 52 21 28 1027.6 1027.7 0.0
19/07:10pm 10.9 2.3 4.4 64 2.9 W 39 57 21 31 1027.4 1027.5 0.0
19/07:00pm 10.9 2.6 4.1 63 3.0 W 37 48 20 26 1027.3 1027.4 0.0
19/06:30pm 10.8 1.2 3.6 61 3.2 WSW 43 56 23 30 1027.1 1027.2 0.0
19/06:00pm 11.1 0.9 5.4 68 2.6 WSW 48 61 26 33 1026.5 1026.6 0.0
19/05:30pm 11.0 1.6 4.2 63 3.0 WSW 43 56 23 30 1026.1 1026.1 0.0
19/05:00pm 10.5 2.5 3.8 63 2.9 WSW 35 52 19 28 1025.8 1025.8 0.0
19/04:41pm 10.5 2.0 3.3 61 3.1 WSW 37 57 20 31 1025.6 1025.6 0.0
19/04:30pm 10.5 1.3 3.3 61 3.1 WSW 41 56 22 30 1025.5 1025.5 0.0
19/04:00pm 10.8 1.1 4.0 63 3.0 WSW 44 59 24 32 1024.9 1024.9 0.0
19/03:34pm 11.1 1.0 3.6 60 3.3 WSW 46 69 25 37 1024.4 1024.4 0.0
19/03:30pm 11.1 1.0 3.6 60 3.3 WSW 46 61 25 33 1024.4 1024.4 0.0
19/03:00pm 11.3 1.3 4.1 61 3.2 WSW 46 59 25 32 1024.0 1024.0 0.0
19/02:30pm 11.0 1.0 4.5 64 2.9 WSW 46 69 25 37 1023.4 1023.4 0.0
19/02:00pm 11.0 1.5 4.9 66 2.8 WSW 44 63 24 34 1023.2 1023.2 0.0
19/01:57pm 11.0 1.8 5.3 68 2.6 WSW 43 61 23 33 1023.2 1023.2 0.0
19/01:30pm 12.2 2.4 5.1 62 3.3 WSW 46 61 25 33 1022.7 1022.7 0.0
19/01:19pm 11.4 0.2 4.2 61 3.2 WSW 52 70 28 38 1022.5 1022.5 0.0
19/01:00pm 11.9 1.7 5.1 63 3.1 WSW 48 65 26 35 1022.4 1022.4 0.0
19/12:30pm 11.8 2.4 4.5 61 3.3 WSW 43 61 23 33 1022.3 1022.3 0.0
19/12:00pm 11.3 1.0 4.7 64 3.0 WSW 48 69 26 37 1022.4 1022.4 0.0
19/11:30am 12.1 1.0 4.3 59 3.5 WSW 52 70 28 38 1021.9 1021.9 0.0
19/11:15am 12.2 0.9 3.4 55 3.9 WSW 52 72 28 39 1021.9 1021.9 0.0
19/11:00am 11.9 0.8 2.4 52 4.1 WSW 50 67 27 36 1021.8 1021.8 0.0
19/10:30am 10.9 0.6 4.8 66 2.8 WSW 48 69 26 37 1021.4 1021.4 0.0
19/10:00am 11.1 -0.3 5.0 66 2.8 WSW 54 74 29 40 1020.6 1020.6 0.0
19/09:32am 11.2 0.0 5.7 69 2.6 WSW 54 72 29 39 1019.8 1019.8 0.0
19/09:30am 11.0 -0.2 6.0 71 2.3 WSW 54 69 29 37 1019.8 1019.8 0.0
19/09:02am 10.3 -2.9 6.3 76 1.9 WSW 65 83 35 45 1019.2 1019.2 0.0
19/09:00am 10.2 -2.6 6.4 77 1.8 WSW 63 80 34 43 1019.2 1019.2 2.4
19/08:30am 10.6 -2.7 6.0 73 2.1 WSW 65 83 35 45 1018.4 1018.5 2.4
19/08:00am 10.0 -2.0 6.7 80 1.5 WSW 59 80 32 43 1017.8 1017.9 2.4
19/07:30am 9.4 -2.1 7.0 85 1.1 WSW 57 82 31 44 1017.3 1017.4 2.4
19/07:00am 10.5 -0.9 7.6 82 1.4 WSW 57 76 31 41 1016.4 1016.5 2.0
19/06:30am 9.8 -3.0 8.2 90 0.8 WSW 65 91 35 49 1016.2 1016.3 2.0
19/06:24am 9.3 -3.3 7.4 88 0.9 W 63 91 34 49 1016.3 1016.4 2.0
19/06:22am 9.2 -3.5 6.8 85 1.1 W 63 91 34 49 1016.2 1016.3 2.0
19/06:00am 10.8 -0.2 6.6 75 2.0 W 54 76 29 41 1015.8 1015.9 1.8
19/05:31am 10.1 0.6 6.6 79 1.6 W 46 65 25 35 1016.0 1016.1 1.8
19/05:30am 10.0 0.0 6.3 78 1.7 W 48 65 26 35 1015.9 1016.0 1.8
19/05:00am 9.9 -1.2 6.4 79 1.6 W 54 65 29 35 1015.9 1016.0 1.8
19/04:37am 10.3 1.0 5.7 73 2.1 W 44 63 24 34 1015.3 1015.4 1.8
19/04:30am 10.4 1.1 4.8 68 2.5 W 43 56 23 30 1015.3 1015.4 1.8
19/04:00am 10.1 -2.1 5.7 74 2.0 W 59 89 32 48 1015.1 1015.2 1.8
19/03:30am 10.4 -1.1 4.5 67 2.6 W 54 72 29 39 1014.8 1014.9 1.8
19/03:11am 10.4 0.6 5.4 71 2.3 W 46 65 25 35 1014.7 1014.8 1.8
19/03:00am 10.5 -0.1 5.1 69 2.5 W 50 67 27 36 1014.7 1014.8 1.8
19/02:35am 10.6 -0.6 4.1 64 2.9 W 52 78 28 42 1014.6 1014.7 1.8
19/02:30am 10.4 -0.6 5.2 70 2.4 W 52 65 28 35 1014.7 1014.8 1.8
19/02:01am 9.9 -0.6 5.5 74 2.0 W 50 69 27 37 1014.6 1014.7 1.8
19/02:00am 9.9 -0.2 5.9 76 1.8 W 48 63 26 34 1014.6 1014.7 1.8
19/01:39am 10.1 -1.2 5.5 73 2.1 WSW 54 72 29 39 1014.4 1014.5 1.8
19/01:30am 10.4 -1.0 5.0 69 2.5 WSW 54 69 29 37 1014.3 1014.4 1.8
19/01:00am 10.4 0.2 5.0 69 2.5 W 48 74 26 40 1014.1 1014.2 1.8
19/12:36am 10.3 -1.0 5.3 71 2.3 WSW 54 74 29 40 1014.0 1014.1 1.8
19/12:30am 10.5 -0.5 5.1 69 2.5 WSW 52 65 28 35 1014.0 1014.1 1.8
19/12:00am 10.2 -2.6 4.8 69 2.4 WSW 61 83 33 45 1013.6 1013.7 1.8
 
Date/Time
EST
Temp
°C
App
Temp
°C
Dew
Point
°C
Rel
Hum
%
Delta-T
°C
Wind Press
QNH
hPa
Press
MSL
hPa
Rain since
9am
mm
Dir  Spd
km/h
Gust
km/h
Spd
kts
Gust
kts
18/11:58pm 10.2 -1.7 5.2 71 2.3 WSW 57 83 31 45 1013.6 1013.7 1.8
18/11:56pm 10.3 -1.1 5.1 70 2.4 WSW 54 83 29 45 1013.5 1013.6 1.8
18/11:50pm 10.4 0.5 5.0 69 2.5 W 46 70 25 38 1013.6 1013.7 1.8
18/11:30pm 9.4 -0.9 6.3 81 1.4 W 50 65 27 35 1013.5 1013.6 1.8
18/11:10pm 9.8 -0.8 6.7 81 1.5 WSW 52 70 28 38 1013.5 1013.6 1.8
18/11:00pm 9.8 -1.9 6.3 79 1.6 WSW 57 72 31 39 1013.4 1013.5 1.8
18/10:30pm 9.8 -1.9 6.3 79 1.6 WSW 57 76 31 41 1013.2 1013.3 1.8
18/10:10pm 9.1 -3.4 6.0 81 1.4 WSW 61 80 33 43 1013.2 1013.3 1.8
18/10:00pm 9.3 -1.4 6.6 83 1.3 W 52 74 28 40 1013.1 1013.2 1.8
18/09:30pm 9.3 1.0 6.2 81 1.4 W 39 57 21 31 1013.0 1013.1 1.8
18/09:05pm 9.2 0.2 6.5 83 1.3 W 43 61 23 33 1012.6 1012.7 1.8
18/09:00pm 9.1 0.1 6.4 83 1.3 W 43 57 23 31 1012.6 1012.7 1.8
18/08:30pm 9.8 0.8 6.3 79 1.6 W 43 63 23 34 1012.3 1012.3 1.8
18/08:00pm 9.7 0.8 4.9 72 2.2 W 41 54 22 29 1011.8 1011.8 1.6
18/07:30pm 10.2 0.0 5.0 70 2.4 W 48 78 26 42 1011.3 1011.3 1.6
18/07:00pm 10.0 0.8 5.4 73 2.1 W 43 61 23 33 1011.0 1011.0 1.6
18/06:30pm 9.6 -0.9 5.4 75 1.9 W 50 70 27 38 1010.1 1010.1 1.6
18/06:29pm 9.5 -0.6 5.7 77 1.7 W 48 67 26 36 1010.1 1010.1 1.6
18/06:00pm 10.2 0.0 5.4 72 2.2 W 48 61 26 33 1009.8 1009.8 1.6
18/05:30pm 10.0 0.7 4.8 70 2.3 WSW 43 61 23 33 1009.1 1009.1 1.6
18/05:00pm 9.9 -0.6 5.7 75 1.9 W 50 72 27 39 1008.8 1008.8 1.6
18/04:30pm 10.4 -1.2 4.1 65 2.8 WSW 54 72 29 39 1008.2 1008.2 1.6
18/04:03pm 10.6 -1.5 3.2 60 3.2 WSW 56 74 30 40 1007.3 1007.3 1.6
18/04:00pm 10.6 -1.6 3.9 63 3.0 WSW 57 74 31 40 1007.3 1007.3 1.6
18/03:30pm 10.7 -2.6 4.0 63 3.0 WSW 63 82 34 44 1006.9 1006.9 1.6
18/03:00pm 10.8 -0.3 4.5 65 2.8 W 52 70 28 38 1006.3 1006.3 1.6
18/02:30pm 10.9 -1.3 3.9 62 3.1 W 57 87 31 47 1005.7 1005.7 1.6
18/02:16pm 10.3 -1.9 5.5 72 2.2 W 59 78 32 42 1005.6 1005.6 1.6
18/02:00pm 10.2 -1.4 6.0 75 2.0 W 56 69 30 37 1005.3 1005.3 1.6
18/01:33pm 10.7 -0.2 5.5 70 2.4 W 52 70 28 38 1005.0 1005.0 1.6
18/01:30pm 10.5 -1.0 4.6 67 2.7 W 54 70 29 38 1004.7 1004.7 1.6
18/01:05pm 9.8 -1.4 6.0 77 1.8 W 54 74 29 40 1004.5 1004.5 1.6
18/01:00pm 10.1 -1.1 5.7 74 2.0 W 54 67 29 36 1004.5 1004.5 1.6
18/12:31pm 9.4 -0.5 6.5 82 1.4 W 48 67 26 36 1004.7 1004.7 1.6
18/12:30pm 9.5 0.0 6.9 84 1.2 W 46 63 25 34 1004.7 1004.7 1.6
18/12:00pm 8.3 -3.5 5.9 85 1.1 W 57 83 31 45 1004.1 1004.1 1.6
18/11:50am 8.1 -4.0 6.1 87 0.9 WSW 59 87 32 47 1003.8 1003.8 1.2
18/11:35am 10.1 -0.2 6.4 78 1.7 W 50 69 27 37 1003.7 1003.7 0.8
18/11:30am 10.6 -0.1 6.4 75 2.0 W 52 67 28 36 1003.6 1003.6 0.8
18/11:06am 9.3 -2.4 6.0 80 1.5 W 57 76 31 41 1003.4 1003.4 0.8
18/11:00am 9.4 -2.2 6.8 84 1.2 WSW 57 74 31 40 1003.2 1003.2 0.8
18/10:30am 9.0 -3.0 6.4 84 1.2 W 59 80 32 43 1002.6 1002.6 0.8
18/10:03am 9.4 -1.1 7.2 86 1.0 W 52 70 28 38 1002.0 1002.0 0.8
18/10:00am 9.0 -2.1 6.4 84 1.2 W 54 70 29 38 1001.9 1001.9 0.8
18/09:30am 8.3 -4.5 6.6 89 0.8 W 63 76 34 41 1001.2 1001.3 0.6
18/09:17am 8.7 -2.4 6.3 85 1.1 W 54 82 29 44 1001.6 1001.7 0.2
18/09:00am 8.7 -2.0 6.3 85 1.1 W 52 67 28 36 1001.1 1001.2 7.6
18/08:48am 8.8 0.3 6.8 87 0.9 W 41 59 22 32 1001.3 1001.4 7.6
18/08:30am 8.5 -0.6 6.1 85 1.1 W 43 57 23 31 1000.6 1000.7 7.2
18/08:00am 8.2 0.3 6.3 88 0.9 WNW 37 50 20 27 1000.6 1000.7 6.8
18/07:30am 8.4 -0.3 6.0 85 1.1 WNW 41 56 22 30 1000.2 1000.3 6.4
18/07:00am 7.8 -1.7 4.7 81 1.4 WNW 44 59 24 32 999.3 999.4 6.0
18/06:32am 8.2 -0.2 5.5 83 1.2 WNW 39 57 21 31 999.4 999.5 5.8
18/06:30am 8.1 -0.4 5.2 82 1.3 WNW 39 56 21 30 999.4 999.5 5.8
18/06:24am 8.1 -1.7 5.2 82 1.3 WNW 46 70 25 38 999.4 999.5 5.8
18/06:16am 8.0 -3.8 5.5 84 1.1 W 57 78 31 42 999.4 999.5 5.8
18/06:11am 8.2 -2.4 5.3 82 1.3 WNW 50 78 27 42 999.4 999.5 5.6
18/06:00am 8.2 -0.7 5.0 80 1.4 WNW 41 59 22 32 999.5 999.6 5.4
18/05:30am 8.2 -0.3 5.3 82 1.3 WNW 39 57 21 31 999.6 999.7 5.4
18/05:00am 7.6 -0.7 4.0 78 1.6 NW 37 57 20 31 999.6 999.7 5.2
18/04:59am 7.7 -1.0 4.1 78 1.6 NW 39 57 21 31 999.6 999.7 5.2
18/04:30am 7.9 0.0 4.3 78 1.6 NW 35 46 19 25 999.5 999.6 5.2
18/04:05am 7.2 -0.7 4.3 82 1.3 WNW 35 54 19 29 999.7 999.8 5.2
18/04:00am 7.1 -1.5 4.4 83 1.2 WNW 39 54 21 29 999.7 999.8 5.2
18/03:30am 7.3 -0.9 4.6 83 1.2 WNW 37 50 20 27 1000.1 1000.2 5.0
18/03:00am 7.6 -0.6 4.7 82 1.3 WNW 37 56 20 30 1000.4 1000.5 4.8
18/02:46am 7.6 -0.4 3.6 76 1.7 NW 35 56 19 30 1000.2 1000.3 4.6
18/02:30am 7.4 -1.6 4.7 83 1.2 WNW 41 54 22 29 1000.3 1000.4 4.6
18/02:14am 7.6 -1.8 4.4 80 1.4 WNW 43 69 23 37 1000.4 1000.5 4.6
18/02:07am 8.4 1.7 3.8 73 2.0 NW 28 46 15 25 1000.5 1000.6 4.4
18/02:00am 8.3 1.9 3.2 70 2.2 NW 26 39 14 21 1000.5 1000.6 4.4
18/01:48am 8.4 1.3 3.3 70 2.2 NW 30 48 16 26 1000.3 1000.4 4.4
18/01:30am 8.6 0.5 3.2 69 2.3 NW 35 48 19 26 1000.6 1000.7 4.4
18/01:00am 8.7 0.0 3.9 72 2.1 WNW 39 67 21 36 1000.9 1001.0 4.4
18/12:30am 8.6 -0.2 3.6 71 2.2 WNW 39 61 21 33 1000.8 1000.9 4.4
18/12:18am 8.7 -1.4 3.9 72 2.1 WNW 46 67 25 36 1000.7 1000.8 4.4
18/12:00am 8.6 -0.2 3.4 70 2.3 WNW 39 54 21 29 1001.0 1001.1 4.4
 
Date/Time
EST
Temp
°C
App
Temp
°C
Dew
Point
°C
Rel
Hum
%
Delta-T
°C
Wind Press
QNH
hPa
Press
MSL
hPa
Rain since
9am
mm
Dir  Spd
km/h
Gust
km/h
Spd
kts
Gust
kts
17/11:31pm 8.3 -0.3 4.7 78 1.6 WNW 39 57 21 31 1001.0 1001.1 4.4
17/11:30pm 8.4 -0.6 4.8 78 1.6 WNW 41 57 22 31 1001.0 1001.1 4.4
17/11:11pm 8.1 0.1 3.8 74 1.9 NW 35 54 19 29 1001.7 1001.8 4.4
17/11:00pm 8.2 0.4 4.8 79 1.5 WNW 35 50 19 27 1001.6 1001.7 4.4
17/10:30pm 8.1 0.3 4.7 79 1.5 NW 35 48 19 26 1001.7 1001.8 4.4
17/10:00pm 8.1 1.8 5.6 84 1.1 NW 28 39 15 21 1001.6 1001.7 4.4
17/09:30pm 7.8 0.6 4.9 82 1.3 NW 32 41 17 22 1001.9 1001.9 4.4

Latest Capital City Observations: Canberra | Sydney | Melbourne | Brisbane | Adelaide | Perth | Hobart | Darwin

Other formats

Comma delimited format used in spreadsheet applications
http://www.bom.gov.au/fwo/IDT60901/IDT60901.95967.axf

JavaScript Object Notation format (JSON) in row-major order
http://www.bom.gov.au/fwo/IDT60901/IDT60901.95967.json

Data quality

Most of these data are generated automatically and are frequently updated. Quality checks on data are not normally performed. It is possible for incorrect values to appear. Refer to information at About Latest Weather Observations and please check the disclaimer before using these data.